sensor_id;sensor_type;location;lat;lon;timestamp;temperature;humidity
54684;DHT22;40582;53.100;6.686;2022-10-16T00:01:25;11.50;99.90
54684;DHT22;40582;53.100;6.686;2022-10-16T00:03:52;11.50;99.90
54684;DHT22;40582;53.100;6.686;2022-10-16T00:06:19;11.50;99.90
54684;DHT22;40582;53.100;6.686;2022-10-16T00:08:46;11.50;99.90
54684;DHT22;40582;53.100;6.686;2022-10-16T00:11:18;11.50;99.90
54684;DHT22;40582;53.100;6.686;2022-10-16T00:13:45;11.50;99.90
54684;DHT22;40582;53.100;6.686;2022-10-16T00:16:12;11.50;99.90
54684;DHT22;40582;53.100;6.686;2022-10-16T00:18:38;11.50;99.90
54684;DHT22;40582;53.100;6.686;2022-10-16T00:21:06;11.40;99.90
54684;DHT22;40582;53.100;6.686;2022-10-16T00:23:32;11.40;99.90
54684;DHT22;40582;53.100;6.686;2022-10-16T00:26:01;11.50;99.90
54684;DHT22;40582;53.100;6.686;2022-10-16T00:28:27;11.50;99.90
54684;DHT22;40582;53.100;6.686;2022-10-16T00:30:53;11.40;99.90
54684;DHT22;40582;53.100;6.686;2022-10-16T00:33:19;11.50;99.90
54684;DHT22;40582;53.100;6.686;2022-10-16T00:35:45;11.50;99.90
54684;DHT22;40582;53.100;6.686;2022-10-16T00:38:10;11.50;99.90
54684;DHT22;40582;53.100;6.686;2022-10-16T00:40:36;11.50;99.90
54684;DHT22;40582;53.100;6.686;2022-10-16T00:43:02;11.50;99.90
54684;DHT22;40582;53.100;6.686;2022-10-16T00:45:28;11.50;99.90
54684;DHT22;40582;53.100;6.686;2022-10-16T00:47:55;11.50;99.90
54684;DHT22;40582;53.100;6.686;2022-10-16T00:50:33;11.60;99.90
54684;DHT22;40582;53.100;6.686;2022-10-16T00:53:00;11.60;99.90
54684;DHT22;40582;53.100;6.686;2022-10-16T00:55:27;11.60;99.90
54684;DHT22;40582;53.100;6.686;2022-10-16T00:57:55;11.60;99.90
54684;DHT22;40582;53.100;6.686;2022-10-16T01:00:25;11.60;99.90
54684;DHT22;40582;53.100;6.686;2022-10-16T01:02:56;11.60;99.90
54684;DHT22;40582;53.100;6.686;2022-10-16T01:05:24;11.60;99.90
54684;DHT22;40582;53.100;6.686;2022-10-16T01:08:10;11.50;99.90
54684;DHT22;40582;53.100;6.686;2022-10-16T01:10:44;11.50;99.90
54684;DHT22;40582;53.100;6.686;2022-10-16T01:13:33;11.60;99.90
54684;DHT22;40582;53.100;6.686;2022-10-16T01:16:15;11.60;99.90
54684;DHT22;40582;53.100;6.686;2022-10-16T01:21:28;11.70;99.90
54684;DHT22;40582;53.100;6.686;2022-10-16T01:31:55;11.70;99.90
54684;DHT22;40582;53.100;6.686;2022-10-16T01:34:28;11.70;99.90
54684;DHT22;40582;53.100;6.686;2022-10-16T01:37:12;11.70;99.90
54684;DHT22;40582;53.100;6.686;2022-10-16T01:39:42;11.70;99.90
54684;DHT22;40582;53.100;6.686;2022-10-16T01:42:23;11.70;99.90
54684;DHT22;40582;53.100;6.686;2022-10-16T01:44:51;11.80;99.90
54684;DHT22;40582;53.100;6.686;2022-10-16T01:47:21;11.80;99.90
54684;DHT22;40582;53.100;6.686;2022-10-16T01:49:48;11.80;99.90
54684;DHT22;40582;53.100;6.686;2022-10-16T01:52:18;11.80;99.90
54684;DHT22;40582;53.100;6.686;2022-10-16T01:54:47;11.80;99.90
54684;DHT22;40582;53.100;6.686;2022-10-16T01:57:16;11.80;99.90
54684;DHT22;40582;53.100;6.686;2022-10-16T01:59:45;11.80;99.90
54684;DHT22;40582;53.100;6.686;2022-10-16T02:02:13;11.70;99.90
54684;DHT22;40582;53.100;6.686;2022-10-16T02:04:46;11.70;99.90
54684;DHT22;40582;53.100;6.686;2022-10-16T02:07:12;11.80;99.90
54684;DHT22;40582;53.100;6.686;2022-10-16T02:09:39;11.80;99.90
54684;DHT22;40582;53.100;6.686;2022-10-16T02:12:31;11.80;99.90
54684;DHT22;40582;53.100;6.686;2022-10-16T02:14:58;11.80;99.90
54684;DHT22;40582;53.100;6.686;2022-10-16T02:17:24;11.80;99.90
54684;DHT22;40582;53.100;6.686;2022-10-16T02:19:52;11.80;99.90
54684;DHT22;40582;53.100;6.686;2022-10-16T02:24:54;11.70;99.90
54684;DHT22;40582;53.100;6.686;2022-10-16T02:27:33;11.80;99.90
54684;DHT22;40582;53.100;6.686;2022-10-16T02:30:09;11.80;99.90
54684;DHT22;40582;53.100;6.686;2022-10-16T02:32:40;11.80;99.90
54684;DHT22;40582;53.100;6.686;2022-10-16T02:35:07;11.90;99.90
54684;DHT22;40582;53.100;6.686;2022-10-16T02:37:34;12.00;99.90
54684;DHT22;40582;53.100;6.686;2022-10-16T02:40:00;12.00;99.90
54684;DHT22;40582;53.100;6.686;2022-10-16T02:42:33;12.00;99.90
54684;DHT22;40582;53.100;6.686;2022-10-16T02:44:59;12.00;99.90
54684;DHT22;40582;53.100;6.686;2022-10-16T02:47:25;12.10;99.90
54684;DHT22;40582;53.100;6.686;2022-10-16T02:49:50;12.10;99.90
54684;DHT22;40582;53.100;6.686;2022-10-16T02:52:16;12.10;99.90
54684;DHT22;40582;53.100;6.686;2022-10-16T02:54:42;12.10;99.90
54684;DHT22;40582;53.100;6.686;2022-10-16T02:57:07;12.20;99.90
54684;DHT22;40582;53.100;6.686;2022-10-16T02:59:33;12.20;99.90
54684;DHT22;40582;53.100;6.686;2022-10-16T03:01:59;12.20;99.90
54684;DHT22;40582;53.100;6.686;2022-10-16T03:04:24;12.20;99.90
54684;DHT22;40582;53.100;6.686;2022-10-16T03:06:50;12.20;99.90
54684;DHT22;40582;53.100;6.686;2022-10-16T03:09:15;12.20;99.90
54684;DHT22;40582;53.100;6.686;2022-10-16T03:11:41;12.20;99.90
54684;DHT22;40582;53.100;6.686;2022-10-16T03:14:07;12.20;99.90
54684;DHT22;40582;53.100;6.686;2022-10-16T03:16:32;12.20;99.90
54684;DHT22;40582;53.100;6.686;2022-10-16T03:18:58;12.20;99.90
54684;DHT22;40582;53.100;6.686;2022-10-16T03:21:24;12.30;99.90
54684;DHT22;40582;53.100;6.686;2022-10-16T03:23:50;12.20;99.90
54684;DHT22;40582;53.100;6.686;2022-10-16T03:26:15;12.20;99.90
54684;DHT22;40582;53.100;6.686;2022-10-16T03:28:41;12.20;99.90
54684;DHT22;40582;53.100;6.686;2022-10-16T03:31:07;12.20;99.90
54684;DHT22;40582;53.100;6.686;2022-10-16T03:33:33;12.20;99.90
54684;DHT22;40582;53.100;6.686;2022-10-16T03:35:59;12.10;99.90
54684;DHT22;40582;53.100;6.686;2022-10-16T03:38:25;12.10;99.90
54684;DHT22;40582;53.100;6.686;2022-10-16T03:40:51;12.10;99.90
54684;DHT22;40582;53.100;6.686;2022-10-16T03:43:17;12.10;99.90
54684;DHT22;40582;53.100;6.686;2022-10-16T03:45:43;12.10;99.90
54684;DHT22;40582;53.100;6.686;2022-10-16T03:48:10;12.00;99.90
54684;DHT22;40582;53.100;6.686;2022-10-16T03:50:36;12.10;99.90
54684;DHT22;40582;53.100;6.686;2022-10-16T03:53:02;12.10;99.90
54684;DHT22;40582;53.100;6.686;2022-10-16T03:55:28;11.60;99.90
54684;DHT22;40582;53.100;6.686;2022-10-16T03:57:53;12.00;99.90
54684;DHT22;40582;53.100;6.686;2022-10-16T04:00:19;12.00;99.90
54684;DHT22;40582;53.100;6.686;2022-10-16T04:02:44;11.90;99.90
54684;DHT22;40582;53.100;6.686;2022-10-16T04:05:10;11.90;99.90
54684;DHT22;40582;53.100;6.686;2022-10-16T04:07:36;11.90;99.90
54684;DHT22;40582;53.100;6.686;2022-10-16T04:10:02;11.80;99.90
54684;DHT22;40582;53.100;6.686;2022-10-16T04:12:28;11.80;99.90
54684;DHT22;40582;53.100;6.686;2022-10-16T04:14:54;11.80;99.90
54684;DHT22;40582;53.100;6.686;2022-10-16T04:17:19;11.80;99.90
54684;DHT22;40582;53.100;6.686;2022-10-16T04:19:45;11.80;99.90
54684;DHT22;40582;53.100;6.686;2022-10-16T04:22:11;11.80;99.90
54684;DHT22;40582;53.100;6.686;2022-10-16T04:24:36;11.70;99.90
54684;DHT22;40582;53.100;6.686;2022-10-16T04:27:02;11.80;99.90
54684;DHT22;40582;53.100;6.686;2022-10-16T04:29:28;11.80;99.90
54684;DHT22;40582;53.100;6.686;2022-10-16T04:31:54;11.80;99.90
54684;DHT22;40582;53.100;6.686;2022-10-16T04:34:20;11.80;99.90
54684;DHT22;40582;53.100;6.686;2022-10-16T04:36:48;11.70;99.90
54684;DHT22;40582;53.100;6.686;2022-10-16T04:39:15;11.70;99.90
54684;DHT22;40582;53.100;6.686;2022-10-16T04:41:41;11.60;99.90
54684;DHT22;40582;53.100;6.686;2022-10-16T04:44:06;11.60;99.90
54684;DHT22;40582;53.100;6.686;2022-10-16T04:46:32;11.60;99.90
54684;DHT22;40582;53.100;6.686;2022-10-16T04:48:58;11.60;99.90
54684;DHT22;40582;53.100;6.686;2022-10-16T04:51:24;11.60;99.90
54684;DHT22;40582;53.100;6.686;2022-10-16T04:53:51;11.70;99.90
54684;DHT22;40582;53.100;6.686;2022-10-16T04:56:16;11.80;99.90
54684;DHT22;40582;53.100;6.686;2022-10-16T04:58:42;11.80;99.90
54684;DHT22;40582;53.100;6.686;2022-10-16T05:01:08;11.80;99.90
54684;DHT22;40582;53.100;6.686;2022-10-16T05:03:33;11.90;99.90
54684;DHT22;40582;53.100;6.686;2022-10-16T05:05:59;12.00;99.90
54684;DHT22;40582;53.100;6.686;2022-10-16T05:08:25;12.00;99.90
54684;DHT22;40582;53.100;6.686;2022-10-16T05:10:51;12.00;99.90
54684;DHT22;40582;53.100;6.686;2022-10-16T05:13:16;12.10;99.90
54684;DHT22;40582;53.100;6.686;2022-10-16T05:15:46;12.10;99.90
54684;DHT22;40582;53.100;6.686;2022-10-16T05:18:11;12.20;99.90
54684;DHT22;40582;53.100;6.686;2022-10-16T05:20:37;12.20;99.90
54684;DHT22;40582;53.100;6.686;2022-10-16T05:23:02;12.20;99.90
54684;DHT22;40582;53.100;6.686;2022-10-16T05:25:28;12.20;99.90
54684;DHT22;40582;53.100;6.686;2022-10-16T05:27:54;12.20;99.90
54684;DHT22;40582;53.100;6.686;2022-10-16T05:30:19;12.30;99.90
54684;DHT22;40582;53.100;6.686;2022-10-16T05:32:49;12.20;99.90
54684;DHT22;40582;53.100;6.686;2022-10-16T05:35:17;12.20;99.90
54684;DHT22;40582;53.100;6.686;2022-10-16T05:37:43;12.20;99.90
54684;DHT22;40582;53.100;6.686;2022-10-16T05:40:09;12.20;99.90
54684;DHT22;40582;53.100;6.686;2022-10-16T05:42:35;12.20;99.90
54684;DHT22;40582;53.100;6.686;2022-10-16T05:45:01;12.30;99.90
54684;DHT22;40582;53.100;6.686;2022-10-16T05:47:26;12.20;99.90
54684;DHT22;40582;53.100;6.686;2022-10-16T05:49:52;12.30;99.90
54684;DHT22;40582;53.100;6.686;2022-10-16T05:52:18;12.20;99.90
54684;DHT22;40582;53.100;6.686;2022-10-16T05:54:44;11.80;99.90
54684;DHT22;40582;53.100;6.686;2022-10-16T05:57:10;12.20;99.90
54684;DHT22;40582;53.100;6.686;2022-10-16T05:59:36;12.20;99.90
54684;DHT22;40582;53.100;6.686;2022-10-16T06:02:02;12.30;99.90
54684;DHT22;40582;53.100;6.686;2022-10-16T06:04:28;12.30;99.90
54684;DHT22;40582;53.100;6.686;2022-10-16T06:06:53;12.30;99.90
54684;DHT22;40582;53.100;6.686;2022-10-16T06:09:19;12.20;99.90
54684;DHT22;40582;53.100;6.686;2022-10-16T06:11:45;12.20;99.90
54684;DHT22;40582;53.100;6.686;2022-10-16T06:14:10;12.20;99.90
54684;DHT22;40582;53.100;6.686;2022-10-16T06:16:37;12.20;99.90
54684;DHT22;40582;53.100;6.686;2022-10-16T06:19:03;12.20;99.90
54684;DHT22;40582;53.100;6.686;2022-10-16T06:21:31;12.30;99.90
54684;DHT22;40582;53.100;6.686;2022-10-16T06:23:58;12.20;99.90
54684;DHT22;40582;53.100;6.686;2022-10-16T06:26:28;12.30;99.90
54684;DHT22;40582;53.100;6.686;2022-10-16T06:28:55;12.30;99.90
54684;DHT22;40582;53.100;6.686;2022-10-16T06:31:22;12.30;99.90
54684;DHT22;40582;53.100;6.686;2022-10-16T06:33:51;12.30;99.90
54684;DHT22;40582;53.100;6.686;2022-10-16T06:36:17;12.30;99.90
54684;DHT22;40582;53.100;6.686;2022-10-16T06:38:43;12.30;99.90
54684;DHT22;40582;53.100;6.686;2022-10-16T06:41:11;12.30;99.90
54684;DHT22;40582;53.100;6.686;2022-10-16T06:43:38;12.40;99.90
54684;DHT22;40582;53.100;6.686;2022-10-16T06:46:06;12.40;99.90
54684;DHT22;40582;53.100;6.686;2022-10-16T06:48:33;12.40;99.90
54684;DHT22;40582;53.100;6.686;2022-10-16T06:53:27;12.50;99.90
54684;DHT22;40582;53.100;6.686;2022-10-16T06:55:54;12.60;99.90
54684;DHT22;40582;53.100;6.686;2022-10-16T06:58:20;12.70;99.90
54684;DHT22;40582;53.100;6.686;2022-10-16T07:00:45;12.70;99.90
54684;DHT22;40582;53.100;6.686;2022-10-16T07:03:11;12.80;99.90
54684;DHT22;40582;53.100;6.686;2022-10-16T07:05:43;12.90;99.90
54684;DHT22;40582;53.100;6.686;2022-10-16T07:08:09;12.90;99.90
54684;DHT22;40582;53.100;6.686;2022-10-16T07:10:35;13.00;99.90
54684;DHT22;40582;53.100;6.686;2022-10-16T07:13:01;13.00;99.90
54684;DHT22;40582;53.100;6.686;2022-10-16T07:15:27;13.10;99.90
54684;DHT22;40582;53.100;6.686;2022-10-16T07:17:53;13.10;99.90
54684;DHT22;40582;53.100;6.686;2022-10-16T07:20:19;13.20;99.90
54684;DHT22;40582;53.100;6.686;2022-10-16T07:22:44;13.30;99.90
54684;DHT22;40582;53.100;6.686;2022-10-16T07:25:10;13.40;99.90
54684;DHT22;40582;53.100;6.686;2022-10-16T07:27:37;13.50;99.90
54684;DHT22;40582;53.100;6.686;2022-10-16T07:30:03;13.60;99.90
54684;DHT22;40582;53.100;6.686;2022-10-16T07:32:29;13.70;99.90
54684;DHT22;40582;53.100;6.686;2022-10-16T07:34:55;13.70;99.90
54684;DHT22;40582;53.100;6.686;2022-10-16T07:37:21;13.70;99.90
54684;DHT22;40582;53.100;6.686;2022-10-16T07:39:47;13.70;99.90
54684;DHT22;40582;53.100;6.686;2022-10-16T07:42:13;13.70;99.90
54684;DHT22;40582;53.100;6.686;2022-10-16T07:44:38;13.60;99.90
54684;DHT22;40582;53.100;6.686;2022-10-16T07:47:05;13.50;99.90
54684;DHT22;40582;53.100;6.686;2022-10-16T07:49:31;13.50;99.90
54684;DHT22;40582;53.100;6.686;2022-10-16T07:51:57;13.50;99.90
54684;DHT22;40582;53.100;6.686;2022-10-16T07:54:22;13.60;99.90
54684;DHT22;40582;53.100;6.686;2022-10-16T07:56:48;13.60;99.90
54684;DHT22;40582;53.100;6.686;2022-10-16T07:59:14;13.60;99.90
54684;DHT22;40582;53.100;6.686;2022-10-16T08:01:40;13.60;99.90
54684;DHT22;40582;53.100;6.686;2022-10-16T08:04:08;13.70;99.90
54684;DHT22;40582;53.100;6.686;2022-10-16T08:06:39;13.70;99.90
54684;DHT22;40582;53.100;6.686;2022-10-16T08:09:05;13.60;99.90
54684;DHT22;40582;53.100;6.686;2022-10-16T08:11:32;13.60;99.90
54684;DHT22;40582;53.100;6.686;2022-10-16T08:13:57;13.60;99.90
54684;DHT22;40582;53.100;6.686;2022-10-16T08:16:23;13.60;99.90
54684;DHT22;40582;53.100;6.686;2022-10-16T08:18:49;13.60;99.90
54684;DHT22;40582;53.100;6.686;2022-10-16T08:21:18;13.70;99.90
54684;DHT22;40582;53.100;6.686;2022-10-16T08:23:44;13.70;99.90
54684;DHT22;40582;53.100;6.686;2022-10-16T08:26:11;13.60;99.90
54684;DHT22;40582;53.100;6.686;2022-10-16T08:28:37;13.70;99.90
54684;DHT22;40582;53.100;6.686;2022-10-16T08:31:12;13.80;99.90
54684;DHT22;40582;53.100;6.686;2022-10-16T08:33:40;13.70;99.90
54684;DHT22;40582;53.100;6.686;2022-10-16T08:36:06;13.60;99.90
54684;DHT22;40582;53.100;6.686;2022-10-16T08:38:33;13.50;99.90
54684;DHT22;40582;53.100;6.686;2022-10-16T08:41:17;13.50;99.90
54684;DHT22;40582;53.100;6.686;2022-10-16T08:49:31;13.40;99.90
54684;DHT22;40582;53.100;6.686;2022-10-16T08:51:57;13.40;99.90
54684;DHT22;40582;53.100;6.686;2022-10-16T08:54:31;13.50;99.90
54684;DHT22;40582;53.100;6.686;2022-10-16T08:57:28;13.50;99.90
54684;DHT22;40582;53.100;6.686;2022-10-16T08:59:53;13.50;99.90
54684;DHT22;40582;53.100;6.686;2022-10-16T09:02:28;13.50;99.90
54684;DHT22;40582;53.100;6.686;2022-10-16T09:07:38;13.50;99.90
54684;DHT22;40582;53.100;6.686;2022-10-16T09:10:31;13.50;99.90
54684;DHT22;40582;53.100;6.686;2022-10-16T09:13:21;13.60;99.90
54684;DHT22;40582;53.100;6.686;2022-10-16T09:19:04;13.60;99.90
54684;DHT22;40582;53.100;6.686;2022-10-16T09:21:44;13.60;99.90
54684;DHT22;40582;53.100;6.686;2022-10-16T09:24:20;13.70;99.90
54684;DHT22;40582;53.100;6.686;2022-10-16T09:26:46;13.80;99.90
54684;DHT22;40582;53.100;6.686;2022-10-16T09:29:16;13.90;99.90
54684;DHT22;40582;53.100;6.686;2022-10-16T09:31:43;14.00;99.90
54684;DHT22;40582;53.100;6.686;2022-10-16T09:34:24;14.10;99.90
54684;DHT22;40582;53.100;6.686;2022-10-16T09:36:53;14.10;99.90
54684;DHT22;40582;53.100;6.686;2022-10-16T09:39:19;14.10;99.90
54684;DHT22;40582;53.100;6.686;2022-10-16T09:41:45;14.10;99.90
54684;DHT22;40582;53.100;6.686;2022-10-16T09:44:19;14.30;99.90
54684;DHT22;40582;53.100;6.686;2022-10-16T09:46:46;14.60;99.90
54684;DHT22;40582;53.100;6.686;2022-10-16T09:49:24;14.80;99.90
54684;DHT22;40582;53.100;6.686;2022-10-16T09:51:50;15.00;99.90
54684;DHT22;40582;53.100;6.686;2022-10-16T09:54:19;15.20;99.90
54684;DHT22;40582;53.100;6.686;2022-10-16T09:56:45;15.40;99.90
54684;DHT22;40582;53.100;6.686;2022-10-16T09:59:19;15.50;99.90
54684;DHT22;40582;53.100;6.686;2022-10-16T10:01:48;15.60;99.90
54684;DHT22;40582;53.100;6.686;2022-10-16T10:04:19;15.70;99.90
54684;DHT22;40582;53.100;6.686;2022-10-16T10:11:44;15.80;99.90
54684;DHT22;40582;53.100;6.686;2022-10-16T10:14:49;15.90;99.90
54684;DHT22;40582;53.100;6.686;2022-10-16T10:17:18;16.00;99.90
54684;DHT22;40582;53.100;6.686;2022-10-16T10:30:27;16.10;99.90
54684;DHT22;40582;53.100;6.686;2022-10-16T10:36:05;16.00;99.90
54684;DHT22;40582;53.100;6.686;2022-10-16T10:38:41;15.90;99.90
54684;DHT22;40582;53.100;6.686;2022-10-16T10:46:54;15.80;99.90
54684;DHT22;40582;53.100;6.686;2022-10-16T10:58:08;15.80;99.90
54684;DHT22;40582;53.100;6.686;2022-10-16T11:00:44;15.80;99.90
54684;DHT22;40582;53.100;6.686;2022-10-16T11:06:20;15.80;99.90
54684;DHT22;40582;53.100;6.686;2022-10-16T11:09:10;16.00;99.90
54684;DHT22;40582;53.100;6.686;2022-10-16T11:16:44;16.80;99.90
54684;DHT22;40582;53.100;6.686;2022-10-16T11:22:13;17.30;99.90
54684;DHT22;40582;53.100;6.686;2022-10-16T11:27:40;17.40;99.90
54684;DHT22;40582;53.100;6.686;2022-10-16T11:30:19;17.10;99.90
54684;DHT22;40582;53.100;6.686;2022-10-16T11:39:31;17.20;99.90
54684;DHT22;40582;53.100;6.686;2022-10-16T11:41:45;17.50;99.90
54684;DHT22;40582;53.100;6.686;2022-10-16T11:47:30;18.10;99.90
54684;DHT22;40582;53.100;6.686;2022-10-16T11:50:06;18.00;99.90
54684;DHT22;40582;53.100;6.686;2022-10-16T11:52:48;17.90;99.90
54684;DHT22;40582;53.100;6.686;2022-10-16T11:55:20;17.70;99.90
54684;DHT22;40582;53.100;6.686;2022-10-16T11:57:50;17.50;99.90
54684;DHT22;40582;53.100;6.686;2022-10-16T12:00:31;17.40;99.90
54684;DHT22;40582;53.100;6.686;2022-10-16T12:08:51;16.80;99.90
54684;DHT22;40582;53.100;6.686;2022-10-16T12:11:32;16.80;99.90
54684;DHT22;40582;53.100;6.686;2022-10-16T12:14:19;17.00;99.90
54684;DHT22;40582;53.100;6.686;2022-10-16T12:16:56;17.10;99.90
54684;DHT22;40582;53.100;6.686;2022-10-16T12:19:26;17.20;99.90
54684;DHT22;40582;53.100;6.686;2022-10-16T12:21:54;17.30;99.90
54684;DHT22;40582;53.100;6.686;2022-10-16T12:24:41;17.50;99.90
54684;DHT22;40582;53.100;6.686;2022-10-16T12:27:31;17.50;99.90
54684;DHT22;40582;53.100;6.686;2022-10-16T12:30:03;17.30;99.90
54684;DHT22;40582;53.100;6.686;2022-10-16T12:32:38;17.20;99.90
54684;DHT22;40582;53.100;6.686;2022-10-16T12:35:06;17.30;99.90
54684;DHT22;40582;53.100;6.686;2022-10-16T12:37:42;17.30;99.90
54684;DHT22;40582;53.100;6.686;2022-10-16T12:40:24;17.30;99.90
54684;DHT22;40582;53.100;6.686;2022-10-16T12:42:51;17.40;99.90
54684;DHT22;40582;53.100;6.686;2022-10-16T12:47:55;17.30;99.90
54684;DHT22;40582;53.100;6.686;2022-10-16T12:50:30;17.20;99.90
54684;DHT22;40582;53.100;6.686;2022-10-16T12:52:58;17.20;99.90
54684;DHT22;40582;53.100;6.686;2022-10-16T12:55:24;17.00;99.90
54684;DHT22;40582;53.100;6.686;2022-10-16T12:58:13;16.90;99.90
54684;DHT22;40582;53.100;6.686;2022-10-16T13:00:57;16.80;99.90
54684;DHT22;40582;53.100;6.686;2022-10-16T13:03:31;16.60;99.90
54684;DHT22;40582;53.100;6.686;2022-10-16T13:14:43;16.30;99.90
54684;DHT22;40582;53.100;6.686;2022-10-16T13:28:35;16.40;99.90
54684;DHT22;40582;53.100;6.686;2022-10-16T13:31:04;16.40;99.90
54684;DHT22;40582;53.100;6.686;2022-10-16T13:33:38;16.30;99.90
54684;DHT22;40582;53.100;6.686;2022-10-16T13:36:05;16.20;99.90
54684;DHT22;40582;53.100;6.686;2022-10-16T13:38:35;16.10;99.90
54684;DHT22;40582;53.100;6.686;2022-10-16T13:41:12;16.10;99.90
54684;DHT22;40582;53.100;6.686;2022-10-16T13:43:49;16.00;99.90
54684;DHT22;40582;53.100;6.686;2022-10-16T13:46:21;16.00;99.90
54684;DHT22;40582;53.100;6.686;2022-10-16T13:49:00;15.90;99.90
54684;DHT22;40582;53.100;6.686;2022-10-16T13:51:27;16.00;99.90
54684;DHT22;40582;53.100;6.686;2022-10-16T13:53:55;16.00;99.90
54684;DHT22;40582;53.100;6.686;2022-10-16T13:56:22;16.00;99.90
54684;DHT22;40582;53.100;6.686;2022-10-16T14:04:04;15.90;99.90
54684;DHT22;40582;53.100;6.686;2022-10-16T14:06:31;15.80;99.90
54684;DHT22;40582;53.100;6.686;2022-10-16T14:09:12;15.70;99.90
54684;DHT22;40582;53.100;6.686;2022-10-16T14:11:50;15.60;99.90
54684;DHT22;40582;53.100;6.686;2022-10-16T14:14:18;15.60;99.90
54684;DHT22;40582;53.100;6.686;2022-10-16T14:16:44;15.50;99.90
54684;DHT22;40582;53.100;6.686;2022-10-16T14:19:26;15.40;99.90
54684;DHT22;40582;53.100;6.686;2022-10-16T14:21:52;15.40;99.90
54684;DHT22;40582;53.100;6.686;2022-10-16T14:26:51;15.30;99.90
54684;DHT22;40582;53.100;6.686;2022-10-16T14:29:19;15.20;99.90
54684;DHT22;40582;53.100;6.686;2022-10-16T14:34:38;15.10;99.90
54684;DHT22;40582;53.100;6.686;2022-10-16T14:37:23;15.10;99.90
54684;DHT22;40582;53.100;6.686;2022-10-16T14:39:50;15.00;99.90
54684;DHT22;40582;53.100;6.686;2022-10-16T14:42:18;14.90;99.90
54684;DHT22;40582;53.100;6.686;2022-10-16T14:44:46;14.90;99.90
54684;DHT22;40582;53.100;6.686;2022-10-16T14:47:17;14.90;99.90
54684;DHT22;40582;53.100;6.686;2022-10-16T14:49:50;14.90;99.90
54684;DHT22;40582;53.100;6.686;2022-10-16T14:52:16;14.90;99.90
54684;DHT22;40582;53.100;6.686;2022-10-16T14:54:42;14.90;99.90
54684;DHT22;40582;53.100;6.686;2022-10-16T14:57:18;14.80;99.90
54684;DHT22;40582;53.100;6.686;2022-10-16T14:59:45;14.80;99.90
54684;DHT22;40582;53.100;6.686;2022-10-16T15:04:53;14.70;99.90
54684;DHT22;40582;53.100;6.686;2022-10-16T15:07:18;14.70;99.90
54684;DHT22;40582;53.100;6.686;2022-10-16T15:09:44;14.70;99.90
54684;DHT22;40582;53.100;6.686;2022-10-16T15:12:10;14.80;99.90
54684;DHT22;40582;53.100;6.686;2022-10-16T15:14:35;14.80;99.90
54684;DHT22;40582;53.100;6.686;2022-10-16T15:17:02;14.80;99.90
54684;DHT22;40582;53.100;6.686;2022-10-16T15:19:27;14.80;99.90
54684;DHT22;40582;53.100;6.686;2022-10-16T15:21:53;14.80;99.90
54684;DHT22;40582;53.100;6.686;2022-10-16T15:24:19;14.80;99.90
54684;DHT22;40582;53.100;6.686;2022-10-16T15:26:44;14.70;99.90
54684;DHT22;40582;53.100;6.686;2022-10-16T15:29:14;14.70;99.90
54684;DHT22;40582;53.100;6.686;2022-10-16T15:31:40;14.70;99.90
54684;DHT22;40582;53.100;6.686;2022-10-16T15:34:09;14.70;99.90
54684;DHT22;40582;53.100;6.686;2022-10-16T15:36:36;14.70;99.90
54684;DHT22;40582;53.100;6.686;2022-10-16T15:39:13;14.60;99.90
54684;DHT22;40582;53.100;6.686;2022-10-16T15:41:40;14.60;99.90
54684;DHT22;40582;53.100;6.686;2022-10-16T15:44:06;14.50;99.90
54684;DHT22;40582;53.100;6.686;2022-10-16T15:46:32;14.40;99.90
54684;DHT22;40582;53.100;6.686;2022-10-16T15:49:00;14.40;99.90
54684;DHT22;40582;53.100;6.686;2022-10-16T15:51:27;14.40;99.90
54684;DHT22;40582;53.100;6.686;2022-10-16T15:53:56;14.30;99.90
54684;DHT22;40582;53.100;6.686;2022-10-16T15:56:22;14.30;99.90
54684;DHT22;40582;53.100;6.686;2022-10-16T15:58:53;14.20;99.90
54684;DHT22;40582;53.100;6.686;2022-10-16T16:01:19;14.10;99.90
54684;DHT22;40582;53.100;6.686;2022-10-16T16:03:46;14.00;99.90
54684;DHT22;40582;53.100;6.686;2022-10-16T16:06:12;14.00;99.90
54684;DHT22;40582;53.100;6.686;2022-10-16T16:08:39;13.90;99.90
54684;DHT22;40582;53.100;6.686;2022-10-16T16:11:07;13.80;99.90
54684;DHT22;40582;53.100;6.686;2022-10-16T16:13:33;13.80;99.90
54684;DHT22;40582;53.100;6.686;2022-10-16T16:15:59;13.70;99.90
54684;DHT22;40582;53.100;6.686;2022-10-16T16:18:25;13.60;99.90
54684;DHT22;40582;53.100;6.686;2022-10-16T16:20:52;13.60;99.90
54684;DHT22;40582;53.100;6.686;2022-10-16T16:23:18;13.50;99.90
54684;DHT22;40582;53.100;6.686;2022-10-16T16:25:45;13.40;99.90
54684;DHT22;40582;53.100;6.686;2022-10-16T16:28:10;13.30;99.90
54684;DHT22;40582;53.100;6.686;2022-10-16T16:30:40;13.20;99.90
54684;DHT22;40582;53.100;6.686;2022-10-16T16:33:06;13.10;99.90
54684;DHT22;40582;53.100;6.686;2022-10-16T16:35:32;13.00;99.90
54684;DHT22;40582;53.100;6.686;2022-10-16T16:37:57;13.00;99.90
54684;DHT22;40582;53.100;6.686;2022-10-16T16:40:23;13.00;99.90
54684;DHT22;40582;53.100;6.686;2022-10-16T16:42:49;13.00;99.90
54684;DHT22;40582;53.100;6.686;2022-10-16T16:45:14;12.90;99.90
54684;DHT22;40582;53.100;6.686;2022-10-16T16:47:40;12.90;99.90
54684;DHT22;40582;53.100;6.686;2022-10-16T16:50:06;12.90;99.90
54684;DHT22;40582;53.100;6.686;2022-10-16T16:52:33;12.90;99.90
54684;DHT22;40582;53.100;6.686;2022-10-16T16:54:59;12.90;99.90
54684;DHT22;40582;53.100;6.686;2022-10-16T16:57:25;12.80;99.90
54684;DHT22;40582;53.100;6.686;2022-10-16T16:59:50;12.80;99.90
54684;DHT22;40582;53.100;6.686;2022-10-16T17:02:17;12.80;99.90
54684;DHT22;40582;53.100;6.686;2022-10-16T17:04:43;12.70;99.90
54684;DHT22;40582;53.100;6.686;2022-10-16T17:07:08;12.70;99.90
54684;DHT22;40582;53.100;6.686;2022-10-16T17:09:34;12.70;99.90
54684;DHT22;40582;53.100;6.686;2022-10-16T17:12:00;12.60;99.90
54684;DHT22;40582;53.100;6.686;2022-10-16T17:14:26;12.60;99.90
54684;DHT22;40582;53.100;6.686;2022-10-16T17:16:51;12.50;99.90
54684;DHT22;40582;53.100;6.686;2022-10-16T17:19:18;12.50;99.90
54684;DHT22;40582;53.100;6.686;2022-10-16T17:21:47;12.40;99.90
54684;DHT22;40582;53.100;6.686;2022-10-16T17:24:13;12.30;99.90
54684;DHT22;40582;53.100;6.686;2022-10-16T17:26:39;12.40;99.90
54684;DHT22;40582;53.100;6.686;2022-10-16T17:29:11;12.30;99.90
54684;DHT22;40582;53.100;6.686;2022-10-16T17:31:37;12.30;99.90
54684;DHT22;40582;53.100;6.686;2022-10-16T17:34:05;12.30;99.90
54684;DHT22;40582;53.100;6.686;2022-10-16T17:36:34;12.30;99.90
54684;DHT22;40582;53.100;6.686;2022-10-16T17:39:05;12.40;99.90
54684;DHT22;40582;53.100;6.686;2022-10-16T17:41:32;12.40;99.90
54684;DHT22;40582;53.100;6.686;2022-10-16T17:43:58;12.40;99.90
54684;DHT22;40582;53.100;6.686;2022-10-16T17:46:24;12.40;99.90